sensor_id;sensor_type;location;lat;lon;timestamp;P1;durP1;ratioP1;P2;durP2;ratioP2
10142;SDS011;5112;54.088;13.446;2023-04-03T00:04:19;2.27;;;1.00;;
10142;SDS011;5112;54.088;13.446;2023-04-03T00:14:22;1.77;;;0.90;;
10142;SDS011;5112;54.088;13.446;2023-04-03T00:24:24;3.63;;;1.27;;
10142;SDS011;5112;54.088;13.446;2023-04-03T00:34:27;4.63;;;1.53;;
10142;SDS011;5112;54.088;13.446;2023-04-03T00:55:09;1.83;;;1.10;;
10142;SDS011;5112;54.088;13.446;2023-04-03T01:05:11;1.80;;;1.00;;
10142;SDS011;5112;54.088;13.446;2023-04-03T01:15:16;4.13;;;1.20;;
10142;SDS011;5112;54.088;13.446;2023-04-03T01:25:19;2.85;;;1.40;;
10142;SDS011;5112;54.088;13.446;2023-04-03T01:35:22;2.28;;;1.50;;
10142;SDS011;5112;54.088;13.446;2023-04-03T01:45:24;2.63;;;1.70;;
10142;SDS011;5112;54.088;13.446;2023-04-03T01:55:27;1.47;;;0.93;;
10142;SDS011;5112;54.088;13.446;2023-04-03T02:05:29;1.13;;;0.80;;
10142;SDS011;5112;54.088;13.446;2023-04-03T02:15:32;5.17;;;1.23;;
10142;SDS011;5112;54.088;13.446;2023-04-03T02:25:33;1.43;;;1.00;;
10142;SDS011;5112;54.088;13.446;2023-04-03T02:35:39;1.87;;;1.07;;
10142;SDS011;5112;54.088;13.446;2023-04-03T02:45:41;2.40;;;1.40;;
10142;SDS011;5112;54.088;13.446;2023-04-03T02:55:44;3.60;;;1.33;;
10142;SDS011;5112;54.088;13.446;2023-04-03T03:05:46;1.27;;;1.10;;
10142;SDS011;5112;54.088;13.446;2023-04-03T03:15:49;3.10;;;0.93;;
10142;SDS011;5112;54.088;13.446;2023-04-03T03:25:54;3.23;;;1.20;;
10142;SDS011;5112;54.088;13.446;2023-04-03T03:35:58;4.00;;;1.17;;
10142;SDS011;5112;54.088;13.446;2023-04-03T03:46:00;2.57;;;1.60;;
10142;SDS011;5112;54.088;13.446;2023-04-03T03:56:03;2.17;;;1.02;;
10142;SDS011;5112;54.088;13.446;2023-04-03T04:06:05;2.13;;;0.90;;
10142;SDS011;5112;54.088;13.446;2023-04-03T04:16:08;4.43;;;1.40;;
10142;SDS011;5112;54.088;13.446;2023-04-03T04:26:10;2.60;;;1.50;;
10142;SDS011;5112;54.088;13.446;2023-04-03T04:36:13;2.13;;;1.00;;
10142;SDS011;5112;54.088;13.446;2023-04-03T04:46:15;1.50;;;1.10;;
10142;SDS011;5112;54.088;13.446;2023-04-03T04:56:18;2.50;;;1.30;;
10142;SDS011;5112;54.088;13.446;2023-04-03T05:06:20;0.97;;;0.67;;
10142;SDS011;5112;54.088;13.446;2023-04-03T05:16:23;2.93;;;1.00;;
10142;SDS011;5112;54.088;13.446;2023-04-03T05:26:25;2.87;;;1.20;;
10142;SDS011;5112;54.088;13.446;2023-04-03T05:36:28;2.27;;;0.97;;
10142;SDS011;5112;54.088;13.446;2023-04-03T05:46:30;3.20;;;1.17;;
10142;SDS011;5112;54.088;13.446;2023-04-03T05:56:34;2.17;;;0.97;;
10142;SDS011;5112;54.088;13.446;2023-04-03T06:06:43;2.83;;;1.00;;
10142;SDS011;5112;54.088;13.446;2023-04-03T06:16:49;4.27;;;0.93;;
10142;SDS011;5112;54.088;13.446;2023-04-03T06:26:51;3.37;;;1.10;;
10142;SDS011;5112;54.088;13.446;2023-04-03T06:36:55;3.90;;;1.70;;
10142;SDS011;5112;54.088;13.446;2023-04-03T06:46:57;3.60;;;1.10;;
10142;SDS011;5112;54.088;13.446;2023-04-03T06:57:00;1.73;;;1.20;;
10142;SDS011;5112;54.088;13.446;2023-04-03T07:07:01;2.60;;;0.90;;
10142;SDS011;5112;54.088;13.446;2023-04-03T07:17:04;1.67;;;1.07;;
10142;SDS011;5112;54.088;13.446;2023-04-03T07:27:06;1.07;;;0.83;;
10142;SDS011;5112;54.088;13.446;2023-04-03T07:37:10;2.57;;;1.13;;
10142;SDS011;5112;54.088;13.446;2023-04-03T07:47:12;1.10;;;0.80;;
10142;SDS011;5112;54.088;13.446;2023-04-03T07:57:17;1.13;;;0.87;;
10142;SDS011;5112;54.088;13.446;2023-04-03T08:07:19;2.93;;;1.17;;
10142;SDS011;5112;54.088;13.446;2023-04-03T08:17:22;1.20;;;0.70;;
10142;SDS011;5112;54.088;13.446;2023-04-03T08:27:24;1.53;;;0.70;;
10142;SDS011;5112;54.088;13.446;2023-04-03T08:37:28;2.47;;;1.07;;
10142;SDS011;5112;54.088;13.446;2023-04-03T08:47:33;1.53;;;0.83;;
10142;SDS011;5112;54.088;13.446;2023-04-03T08:57:41;0.60;;;0.60;;
10142;SDS011;5112;54.088;13.446;2023-04-03T09:07:46;1.57;;;0.53;;
10142;SDS011;5112;54.088;13.446;2023-04-03T09:17:59;1.83;;;0.70;;
10142;SDS011;5112;54.088;13.446;2023-04-03T09:28:05;4.97;;;1.10;;
10142;SDS011;5112;54.088;13.446;2023-04-03T09:38:19;1.30;;;0.93;;
10142;SDS011;5112;54.088;13.446;2023-04-03T09:48:23;1.17;;;0.70;;
10142;SDS011;5112;54.088;13.446;2023-04-03T09:58:27;1.60;;;0.77;;
10142;SDS011;5112;54.088;13.446;2023-04-03T10:08:31;3.57;;;1.30;;
10142;SDS011;5112;54.088;13.446;2023-04-03T10:18:37;1.10;;;0.90;;
10142;SDS011;5112;54.088;13.446;2023-04-03T10:28:45;1.33;;;0.93;;
10142;SDS011;5112;54.088;13.446;2023-04-03T10:38:57;1.40;;;0.87;;
10142;SDS011;5112;54.088;13.446;2023-04-03T10:49:08;1.67;;;1.13;;
10142;SDS011;5112;54.088;13.446;2023-04-03T10:59:25;4.17;;;1.13;;
10142;SDS011;5112;54.088;13.446;2023-04-03T11:09:31;0.73;;;0.73;;
10142;SDS011;5112;54.088;13.446;2023-04-03T11:19:41;3.30;;;0.80;;
10142;SDS011;5112;54.088;13.446;2023-04-03T11:29:46;2.00;;;0.80;;
10142;SDS011;5112;54.088;13.446;2023-04-03T11:39:52;2.20;;;1.10;;
10142;SDS011;5112;54.088;13.446;2023-04-03T11:49:57;2.10;;;1.00;;
10142;SDS011;5112;54.088;13.446;2023-04-03T12:00:20;1.50;;;0.83;;
10142;SDS011;5112;54.088;13.446;2023-04-03T12:10:53;1.83;;;1.10;;
10142;SDS011;5112;54.088;13.446;2023-04-03T12:21:17;1.70;;;1.13;;
10142;SDS011;5112;54.088;13.446;2023-04-03T12:31:22;2.27;;;0.90;;
10142;SDS011;5112;54.088;13.446;2023-04-03T12:41:33;1.90;;;0.50;;
10142;SDS011;5112;54.088;13.446;2023-04-03T12:51:40;1.47;;;0.70;;
10142;SDS011;5112;54.088;13.446;2023-04-03T13:01:44;1.60;;;1.00;;
10142;SDS011;5112;54.088;13.446;2023-04-03T13:11:56;2.20;;;1.20;;
10142;SDS011;5112;54.088;13.446;2023-04-03T13:22:04;1.83;;;1.20;;
10142;SDS011;5112;54.088;13.446;2023-04-03T13:32:14;1.30;;;1.20;;
10142;SDS011;5112;54.088;13.446;2023-04-03T13:42:23;1.20;;;1.00;;
10142;SDS011;5112;54.088;13.446;2023-04-03T13:52:27;3.73;;;1.53;;
10142;SDS011;5112;54.088;13.446;2023-04-03T14:02:34;1.80;;;1.20;;
10142;SDS011;5112;54.088;13.446;2023-04-03T14:12:36;2.00;;;1.00;;
10142;SDS011;5112;54.088;13.446;2023-04-03T14:22:41;3.87;;;1.27;;
10142;SDS011;5112;54.088;13.446;2023-04-03T14:32:44;4.37;;;1.67;;
10142;SDS011;5112;54.088;13.446;2023-04-03T14:42:48;2.67;;;1.20;;
10142;SDS011;5112;54.088;13.446;2023-04-03T14:52:51;3.60;;;1.83;;
10142;SDS011;5112;54.088;13.446;2023-04-03T15:02:56;3.93;;;2.00;;
10142;SDS011;5112;54.088;13.446;2023-04-03T15:12:58;3.00;;;1.93;;
10142;SDS011;5112;54.088;13.446;2023-04-03T15:23:01;6.67;;;4.23;;
10142;SDS011;5112;54.088;13.446;2023-04-03T15:33:04;2.37;;;1.50;;
10142;SDS011;5112;54.088;13.446;2023-04-03T15:43:07;2.70;;;2.47;;
10142;SDS011;5112;54.088;13.446;2023-04-03T15:53:09;3.67;;;1.77;;
10142;SDS011;5112;54.088;13.446;2023-04-03T16:03:14;4.10;;;1.80;;
10142;SDS011;5112;54.088;13.446;2023-04-03T16:13:18;2.13;;;1.50;;
10142;SDS011;5112;54.088;13.446;2023-04-03T16:23:21;2.87;;;1.53;;
10142;SDS011;5112;54.088;13.446;2023-04-03T16:33:24;2.10;;;1.10;;
10142;SDS011;5112;54.088;13.446;2023-04-03T16:43:27;3.00;;;1.07;;
10142;SDS011;5112;54.088;13.446;2023-04-03T16:53:28;5.40;;;1.67;;
10142;SDS011;5112;54.088;13.446;2023-04-03T17:03:31;2.17;;;1.50;;
10142;SDS011;5112;54.088;13.446;2023-04-03T17:13:33;4.73;;;2.83;;
10142;SDS011;5112;54.088;13.446;2023-04-03T17:23:36;7.17;;;6.10;;
10142;SDS011;5112;54.088;13.446;2023-04-03T17:33:40;2.53;;;1.20;;
10142;SDS011;5112;54.088;13.446;2023-04-03T17:43:43;2.30;;;1.10;;
10142;SDS011;5112;54.088;13.446;2023-04-03T17:53:45;2.50;;;1.20;;
10142;SDS011;5112;54.088;13.446;2023-04-03T18:03:49;5.93;;;4.67;;
10142;SDS011;5112;54.088;13.446;2023-04-03T18:13:53;2.33;;;1.73;;
10142;SDS011;5112;54.088;13.446;2023-04-03T18:23:58;4.93;;;3.30;;
10142;SDS011;5112;54.088;13.446;2023-04-03T18:34:01;4.07;;;3.07;;
10142;SDS011;5112;54.088;13.446;2023-04-03T18:44:05;4.97;;;4.47;;
10142;SDS011;5112;54.088;13.446;2023-04-03T18:54:10;1.45;;;1.30;;
10142;SDS011;5112;54.088;13.446;2023-04-03T19:04:13;2.60;;;1.57;;
10142;SDS011;5112;54.088;13.446;2023-04-03T19:14:15;2.40;;;1.30;;
10142;SDS011;5112;54.088;13.446;2023-04-03T19:24:18;3.43;;;1.87;;
10142;SDS011;5112;54.088;13.446;2023-04-03T19:34:20;2.10;;;1.50;;
10142;SDS011;5112;54.088;13.446;2023-04-03T19:44:23;2.07;;;1.03;;
10142;SDS011;5112;54.088;13.446;2023-04-03T19:54:25;1.97;;;1.43;;
10142;SDS011;5112;54.088;13.446;2023-04-03T20:04:28;2.30;;;1.52;;
10142;SDS011;5112;54.088;13.446;2023-04-03T20:14:30;4.63;;;1.40;;
10142;SDS011;5112;54.088;13.446;2023-04-03T20:24:33;4.70;;;3.97;;
10142;SDS011;5112;54.088;13.446;2023-04-03T20:34:35;6.20;;;5.60;;
10142;SDS011;5112;54.088;13.446;2023-04-03T20:44:38;7.50;;;5.27;;
10142;SDS011;5112;54.088;13.446;2023-04-03T20:54:43;8.20;;;6.40;;
10142;SDS011;5112;54.088;13.446;2023-04-03T21:04:47;5.85;;;5.07;;
10142;SDS011;5112;54.088;13.446;2023-04-03T21:25:32;6.27;;;4.87;;
10142;SDS011;5112;54.088;13.446;2023-04-03T21:35:34;5.07;;;4.43;;
10142;SDS011;5112;54.088;13.446;2023-04-03T21:45:37;4.70;;;3.73;;
10142;SDS011;5112;54.088;13.446;2023-04-03T21:55:39;5.15;;;4.45;;
10142;SDS011;5112;54.088;13.446;2023-04-03T22:05:42;4.33;;;3.80;;
10142;SDS011;5112;54.088;13.446;2023-04-03T22:15:45;6.40;;;3.00;;
10142;SDS011;5112;54.088;13.446;2023-04-03T22:25:57;5.00;;;3.13;;
10142;SDS011;5112;54.088;13.446;2023-04-03T22:35:59;3.57;;;2.80;;
10142;SDS011;5112;54.088;13.446;2023-04-03T22:46:02;5.77;;;3.10;;
10142;SDS011;5112;54.088;13.446;2023-04-03T22:56:05;3.13;;;2.47;;
10142;SDS011;5112;54.088;13.446;2023-04-03T23:06:11;4.27;;;2.80;;
10142;SDS011;5112;54.088;13.446;2023-04-03T23:16:13;3.63;;;2.67;;
10142;SDS011;5112;54.088;13.446;2023-04-03T23:26:16;3.40;;;2.90;;
10142;SDS011;5112;54.088;13.446;2023-04-03T23:36:17;4.67;;;3.40;;
10142;SDS011;5112;54.088;13.446;2023-04-03T23:46:21;3.87;;;2.87;;
10142;SDS011;5112;54.088;13.446;2023-04-03T23:56:23;4.00;;;2.67;;
